sensor_id;sensor_type;location;lat;lon;timestamp;pressure;altitude;pressure_sealevel;temperature;humidity
62864;BME280;48954;59.950;11.014;2023-05-24T00:02:17;99983.86;;;8.70;76.36
62864;BME280;48954;59.950;11.014;2023-05-24T00:04:44;99984.94;;;8.67;76.54
62864;BME280;48954;59.950;11.014;2023-05-24T00:07:10;99979.84;;;8.64;76.58
62864;BME280;48954;59.950;11.014;2023-05-24T00:09:37;99976.44;;;8.59;76.22
62864;BME280;48954;59.950;11.014;2023-05-24T00:12:04;99979.15;;;8.55;76.62
62864;BME280;48954;59.950;11.014;2023-05-24T00:14:30;99980.75;;;8.52;76.93
62864;BME280;48954;59.950;11.014;2023-05-24T00:16:57;99983.23;;;8.49;76.64
62864;BME280;48954;59.950;11.014;2023-05-24T00:19:24;99987.55;;;8.43;76.70
62864;BME280;48954;59.950;11.014;2023-05-24T00:21:50;99988.45;;;8.39;76.55
62864;BME280;48954;59.950;11.014;2023-05-24T00:24:17;99994.37;;;8.36;76.58
62864;BME280;48954;59.950;11.014;2023-05-24T00:26:44;99996.31;;;8.31;76.76
62864;BME280;48954;59.950;11.014;2023-05-24T00:29:11;99996.12;;;8.30;77.04
62864;BME280;48954;59.950;11.014;2023-05-24T00:31:37;99998.54;;;8.30;77.26
62864;BME280;48954;59.950;11.014;2023-05-24T00:34:04;99995.30;;;8.29;77.24
62864;BME280;48954;59.950;11.014;2023-05-24T00:36:30;99991.17;;;8.23;76.80
62864;BME280;48954;59.950;11.014;2023-05-24T00:38:57;99991.17;;;8.17;76.79
62864;BME280;48954;59.950;11.014;2023-05-24T00:41:24;99987.66;;;8.15;77.13
62864;BME280;48954;59.950;11.014;2023-05-24T00:43:51;99983.04;;;8.13;77.15
62864;BME280;48954;59.950;11.014;2023-05-24T00:48:52;99987.39;;;8.12;77.38
62864;BME280;48954;59.950;11.014;2023-05-24T00:51:19;99986.33;;;8.13;77.37
62864;BME280;48954;59.950;11.014;2023-05-24T00:53:47;99992.45;;;8.13;77.68
62864;BME280;48954;59.950;11.014;2023-05-24T00:56:15;99993.96;;;8.13;77.57
62864;BME280;48954;59.950;11.014;2023-05-24T00:58:42;99992.63;;;8.15;77.83
62864;BME280;48954;59.950;11.014;2023-05-24T01:01:09;99995.10;;;8.15;77.96
62864;BME280;48954;59.950;11.014;2023-05-24T01:03:36;99995.27;;;8.15;77.83
62864;BME280;48954;59.950;11.014;2023-05-24T01:06:04;99999.86;;;8.16;78.06
62864;BME280;48954;59.950;11.014;2023-05-24T01:13:53;100003.71;;;8.24;77.90
62864;BME280;48954;59.950;11.014;2023-05-24T01:16:38;100002.25;;;8.25;77.99
62864;BME280;48954;59.950;11.014;2023-05-24T01:19:24;99997.42;;;8.25;78.04
62864;BME280;48954;59.950;11.014;2023-05-24T01:22:11;99996.45;;;8.26;77.91
62864;BME280;48954;59.950;11.014;2023-05-24T01:27:21;99994.36;;;8.29;78.10
62864;BME280;48954;59.950;11.014;2023-05-24T01:29:49;99991.42;;;8.28;78.30
62864;BME280;48954;59.950;11.014;2023-05-24T01:32:16;99994.00;;;8.33;78.48
62864;BME280;48954;59.950;11.014;2023-05-24T01:34:44;99984.10;;;8.34;78.52
62864;BME280;48954;59.950;11.014;2023-05-24T01:37:10;99985.88;;;8.37;78.60
62864;BME280;48954;59.950;11.014;2023-05-24T01:39:37;99980.83;;;8.40;78.81
62864;BME280;48954;59.950;11.014;2023-05-24T01:42:11;99977.55;;;8.41;78.73
62864;BME280;48954;59.950;11.014;2023-05-24T01:44:47;99977.96;;;8.44;78.67
62864;BME280;48954;59.950;11.014;2023-05-24T01:47:29;99979.77;;;8.46;78.83
62864;BME280;48954;59.950;11.014;2023-05-24T01:50:19;99984.98;;;8.47;78.75
62864;BME280;48954;59.950;11.014;2023-05-24T01:52:49;99987.26;;;8.49;78.86
62864;BME280;48954;59.950;11.014;2023-05-24T01:55:17;99988.05;;;8.50;78.81
62864;BME280;48954;59.950;11.014;2023-05-24T01:57:45;99987.09;;;8.50;78.70
62864;BME280;48954;59.950;11.014;2023-05-24T02:00:14;99984.45;;;8.50;78.73
62864;BME280;48954;59.950;11.014;2023-05-24T02:02:43;99983.21;;;8.51;78.87
62864;BME280;48954;59.950;11.014;2023-05-24T02:05:10;99979.60;;;8.50;78.75
62864;BME280;48954;59.950;11.014;2023-05-24T02:07:37;99981.11;;;8.51;78.76
62864;BME280;48954;59.950;11.014;2023-05-24T02:10:04;99979.73;;;8.51;78.88
62864;BME280;48954;59.950;11.014;2023-05-24T02:12:30;99981.59;;;8.51;78.76
62864;BME280;48954;59.950;11.014;2023-05-24T02:14:57;99980.51;;;8.51;78.76
62864;BME280;48954;59.950;11.014;2023-05-24T02:17:24;99982.04;;;8.52;78.99
62864;BME280;48954;59.950;11.014;2023-05-24T02:19:51;99989.52;;;8.53;78.96
62864;BME280;48954;59.950;11.014;2023-05-24T02:22:18;99993.91;;;8.52;78.91
62864;BME280;48954;59.950;11.014;2023-05-24T02:24:44;99996.08;;;8.51;78.76
62864;BME280;48954;59.950;11.014;2023-05-24T02:27:11;99997.97;;;8.49;78.87
62864;BME280;48954;59.950;11.014;2023-05-24T02:29:37;99994.89;;;8.49;78.65
62864;BME280;48954;59.950;11.014;2023-05-24T02:32:04;99998.13;;;8.49;78.98
62864;BME280;48954;59.950;11.014;2023-05-24T02:34:31;99996.86;;;8.47;79.05
62864;BME280;48954;59.950;11.014;2023-05-24T02:36:57;99993.05;;;8.46;78.77
62864;BME280;48954;59.950;11.014;2023-05-24T02:39:24;99992.29;;;8.43;78.97
62864;BME280;48954;59.950;11.014;2023-05-24T02:41:51;99986.81;;;8.41;78.87
62864;BME280;48954;59.950;11.014;2023-05-24T02:44:18;99987.33;;;8.38;78.59
62864;BME280;48954;59.950;11.014;2023-05-24T02:46:44;99985.34;;;8.37;78.90
62864;BME280;48954;59.950;11.014;2023-05-24T02:49:11;99991.52;;;8.37;79.19
62864;BME280;48954;59.950;11.014;2023-05-24T02:51:37;99991.04;;;8.37;79.07
62864;BME280;48954;59.950;11.014;2023-05-24T02:54:04;99988.54;;;8.35;78.83
62864;BME280;48954;59.950;11.014;2023-05-24T02:56:31;99988.14;;;8.33;78.83
62864;BME280;48954;59.950;11.014;2023-05-24T02:58:58;99992.77;;;8.31;79.21
62864;BME280;48954;59.950;11.014;2023-05-24T03:01:24;99999.11;;;8.31;78.89
62864;BME280;48954;59.950;11.014;2023-05-24T03:03:51;99995.53;;;8.32;79.11
62864;BME280;48954;59.950;11.014;2023-05-24T03:06:17;99993.10;;;8.34;79.14
62864;BME280;48954;59.950;11.014;2023-05-24T03:08:44;99990.16;;;8.34;79.25
62864;BME280;48954;59.950;11.014;2023-05-24T03:11:10;99989.64;;;8.35;79.41
62864;BME280;48954;59.950;11.014;2023-05-24T03:13:37;99982.23;;;8.31;79.07
62864;BME280;48954;59.950;11.014;2023-05-24T03:16:04;99990.04;;;8.33;79.05
62864;BME280;48954;59.950;11.014;2023-05-24T03:18:31;99995.83;;;8.35;79.09
62864;BME280;48954;59.950;11.014;2023-05-24T03:20:57;99996.31;;;8.34;79.32
62864;BME280;48954;59.950;11.014;2023-05-24T03:23:24;100008.80;;;8.38;79.17
62864;BME280;48954;59.950;11.014;2023-05-24T03:25:51;100005.52;;;8.41;79.15
62864;BME280;48954;59.950;11.014;2023-05-24T03:28:17;100001.41;;;8.42;79.22
62864;BME280;48954;59.950;11.014;2023-05-24T03:30:44;99999.80;;;8.43;79.17
62864;BME280;48954;59.950;11.014;2023-05-24T03:33:10;99996.77;;;8.44;79.04
62864;BME280;48954;59.950;11.014;2023-05-24T03:35:37;99993.04;;;8.45;79.05
62864;BME280;48954;59.950;11.014;2023-05-24T03:38:03;99988.62;;;8.43;78.90
62864;BME280;48954;59.950;11.014;2023-05-24T03:40:30;99987.38;;;8.46;79.00
62864;BME280;48954;59.950;11.014;2023-05-24T03:42:56;99980.95;;;8.48;79.24
62864;BME280;48954;59.950;11.014;2023-05-24T03:45:23;99981.29;;;8.53;79.07
62864;BME280;48954;59.950;11.014;2023-05-24T03:47:50;99971.90;;;8.56;79.11
62864;BME280;48954;59.950;11.014;2023-05-24T03:50:16;99971.20;;;8.61;79.20
62864;BME280;48954;59.950;11.014;2023-05-24T03:52:43;99972.80;;;8.64;79.12
62864;BME280;48954;59.950;11.014;2023-05-24T03:55:10;99972.69;;;8.66;79.09
62864;BME280;48954;59.950;11.014;2023-05-24T03:57:36;99969.77;;;8.68;79.02
62864;BME280;48954;59.950;11.014;2023-05-24T04:00:03;99966.52;;;8.74;79.10
62864;BME280;48954;59.950;11.014;2023-05-24T04:02:29;99960.52;;;8.77;78.97
62864;BME280;48954;59.950;11.014;2023-05-24T04:04:56;99959.02;;;8.81;79.08
62864;BME280;48954;59.950;11.014;2023-05-24T04:07:22;99957.36;;;8.86;78.90
62864;BME280;48954;59.950;11.014;2023-05-24T04:09:49;99959.27;;;8.91;78.77
62864;BME280;48954;59.950;11.014;2023-05-24T04:12:16;99953.91;;;8.95;78.98
62864;BME280;48954;59.950;11.014;2023-05-24T04:14:42;99949.73;;;9.00;78.67
62864;BME280;48954;59.950;11.014;2023-05-24T04:17:09;99959.50;;;9.09;78.89
62864;BME280;48954;59.950;11.014;2023-05-24T04:19:35;99965.67;;;9.16;78.80
62864;BME280;48954;59.950;11.014;2023-05-24T04:22:02;99961.46;;;9.21;78.78
62864;BME280;48954;59.950;11.014;2023-05-24T04:24:28;99961.98;;;9.30;78.66
62864;BME280;48954;59.950;11.014;2023-05-24T04:26:55;99967.63;;;9.41;78.76
62864;BME280;48954;59.950;11.014;2023-05-24T04:29:22;99971.30;;;9.51;78.83
62864;BME280;48954;59.950;11.014;2023-05-24T04:31:48;99972.59;;;9.60;78.61
62864;BME280;48954;59.950;11.014;2023-05-24T04:34:15;99974.83;;;9.69;78.27
62864;BME280;48954;59.950;11.014;2023-05-24T04:36:41;99972.95;;;9.78;78.17
62864;BME280;48954;59.950;11.014;2023-05-24T04:39:08;99975.91;;;9.88;78.31
62864;BME280;48954;59.950;11.014;2023-05-24T04:41:35;99973.55;;;10.01;78.28
62864;BME280;48954;59.950;11.014;2023-05-24T04:44:01;99969.92;;;10.15;78.09
62864;BME280;48954;59.950;11.014;2023-05-24T04:46:28;99967.70;;;10.28;77.98
62864;BME280;48954;59.950;11.014;2023-05-24T04:48:55;99965.30;;;10.37;77.42
62864;BME280;48954;59.950;11.014;2023-05-24T04:51:22;99959.41;;;10.47;77.22
62864;BME280;48954;59.950;11.014;2023-05-24T04:53:49;99962.55;;;10.56;77.44
62864;BME280;48954;59.950;11.014;2023-05-24T04:56:15;99961.71;;;10.60;77.29
62864;BME280;48954;59.950;11.014;2023-05-24T04:58:42;99961.46;;;10.61;76.96
62864;BME280;48954;59.950;11.014;2023-05-24T05:01:08;99954.80;;;10.63;76.99
62864;BME280;48954;59.950;11.014;2023-05-24T05:03:35;99950.88;;;10.72;76.86
62864;BME280;48954;59.950;11.014;2023-05-24T05:06:02;99951.18;;;10.82;76.69
62864;BME280;48954;59.950;11.014;2023-05-24T05:08:29;99947.46;;;10.87;76.51
62864;BME280;48954;59.950;11.014;2023-05-24T05:10:55;99939.90;;;10.97;76.36
62864;BME280;48954;59.950;11.014;2023-05-24T05:13:22;99935.89;;;11.10;76.41
62864;BME280;48954;59.950;11.014;2023-05-24T05:15:50;99929.79;;;11.26;76.26
62864;BME280;48954;59.950;11.014;2023-05-24T05:18:16;99926.40;;;11.40;76.09
62864;BME280;48954;59.950;11.014;2023-05-24T05:20:43;99930.39;;;11.53;75.84
62864;BME280;48954;59.950;11.014;2023-05-24T05:23:09;99935.35;;;11.65;75.56
62864;BME280;48954;59.950;11.014;2023-05-24T05:25:36;99934.42;;;11.75;75.17
62864;BME280;48954;59.950;11.014;2023-05-24T05:28:02;99933.35;;;11.89;75.02
62864;BME280;48954;59.950;11.014;2023-05-24T05:30:29;99933.13;;;12.00;74.78
62864;BME280;48954;59.950;11.014;2023-05-24T05:32:55;99932.66;;;12.10;74.42
62864;BME280;48954;59.950;11.014;2023-05-24T05:35:22;99931.65;;;12.19;73.99
62864;BME280;48954;59.950;11.014;2023-05-24T05:37:48;99932.02;;;12.30;73.82
62864;BME280;48954;59.950;11.014;2023-05-24T05:40:15;99931.88;;;12.44;73.75
62864;BME280;48954;59.950;11.014;2023-05-24T05:42:41;99937.48;;;12.53;73.34
62864;BME280;48954;59.950;11.014;2023-05-24T05:45:08;99939.27;;;12.66;73.10
62864;BME280;48954;59.950;11.014;2023-05-24T05:47:35;99940.61;;;12.76;72.65
62864;BME280;48954;59.950;11.014;2023-05-24T05:50:01;99941.16;;;12.76;71.67
62864;BME280;48954;59.950;11.014;2023-05-24T05:52:28;99942.67;;;12.71;71.36
62864;BME280;48954;59.950;11.014;2023-05-24T05:54:54;99944.55;;;12.76;71.44
62864;BME280;48954;59.950;11.014;2023-05-24T05:57:21;99940.31;;;12.91;71.86
62864;BME280;48954;59.950;11.014;2023-05-24T05:59:47;99940.75;;;13.10;71.87
62864;BME280;48954;59.950;11.014;2023-05-24T06:02:14;99933.30;;;13.27;71.43
62864;BME280;48954;59.950;11.014;2023-05-24T06:04:40;99931.41;;;13.44;71.40
62864;BME280;48954;59.950;11.014;2023-05-24T06:07:07;99938.08;;;13.64;71.19
62864;BME280;48954;59.950;11.014;2023-05-24T06:09:33;99936.67;;;13.85;71.26
62864;BME280;48954;59.950;11.014;2023-05-24T06:12:00;99937.92;;;14.04;70.82
62864;BME280;48954;59.950;11.014;2023-05-24T06:14:26;99939.08;;;14.24;70.62
62864;BME280;48954;59.950;11.014;2023-05-24T06:16:53;99931.72;;;14.44;70.29
62864;BME280;48954;59.950;11.014;2023-05-24T06:19:19;99927.16;;;14.63;69.92
62864;BME280;48954;59.950;11.014;2023-05-24T06:21:47;99925.90;;;14.83;69.55
62864;BME280;48954;59.950;11.014;2023-05-24T06:24:14;99917.73;;;15.03;69.56
62864;BME280;48954;59.950;11.014;2023-05-24T06:26:40;99916.49;;;15.17;68.24
62864;BME280;48954;59.950;11.014;2023-05-24T06:29:07;99919.24;;;15.29;68.17
62864;BME280;48954;59.950;11.014;2023-05-24T06:31:34;99918.77;;;15.40;67.48
62864;BME280;48954;59.950;11.014;2023-05-24T06:34:01;99910.56;;;15.48;66.88
62864;BME280;48954;59.950;11.014;2023-05-24T06:36:27;99907.59;;;15.53;66.55
62864;BME280;48954;59.950;11.014;2023-05-24T06:38:54;99898.94;;;15.61;66.43
62864;BME280;48954;59.950;11.014;2023-05-24T06:41:20;99903.50;;;15.68;66.29
62864;BME280;48954;59.950;11.014;2023-05-24T06:43:49;99905.39;;;15.73;65.73
62864;BME280;48954;59.950;11.014;2023-05-24T06:46:16;99907.52;;;15.88;66.24
62864;BME280;48954;59.950;11.014;2023-05-24T06:48:42;99907.02;;;16.13;66.41
62864;BME280;48954;59.950;11.014;2023-05-24T06:51:09;99906.36;;;16.38;66.18
62864;BME280;48954;59.950;11.014;2023-05-24T06:53:35;99912.81;;;16.61;65.53
62864;BME280;48954;59.950;11.014;2023-05-24T06:56:02;99916.18;;;16.70;63.91
62864;BME280;48954;59.950;11.014;2023-05-24T06:58:28;99909.66;;;16.64;63.01
62864;BME280;48954;59.950;11.014;2023-05-24T07:00:55;99916.40;;;16.65;62.77
62864;BME280;48954;59.950;11.014;2023-05-24T07:03:21;99916.33;;;16.67;62.34
62864;BME280;48954;59.950;11.014;2023-05-24T07:05:48;99919.10;;;16.68;61.70
62864;BME280;48954;59.950;11.014;2023-05-24T07:08:14;99917.68;;;16.75;61.84
62864;BME280;48954;59.950;11.014;2023-05-24T07:10:41;99913.70;;;16.89;61.48
62864;BME280;48954;59.950;11.014;2023-05-24T07:13:07;99912.13;;;16.99;60.89
62864;BME280;48954;59.950;11.014;2023-05-24T07:15:34;99906.15;;;17.11;60.29
62864;BME280;48954;59.950;11.014;2023-05-24T07:18:01;99903.27;;;17.17;59.65
62864;BME280;48954;59.950;11.014;2023-05-24T07:20:27;99904.23;;;17.21;59.22
62864;BME280;48954;59.950;11.014;2023-05-24T07:22:54;99903.72;;;17.30;58.55
62864;BME280;48954;59.950;11.014;2023-05-24T07:25:20;99901.14;;;17.41;58.43
62864;BME280;48954;59.950;11.014;2023-05-24T07:27:47;99900.46;;;17.62;58.71
62864;BME280;48954;59.950;11.014;2023-05-24T07:30:14;99899.42;;;17.85;58.20
62864;BME280;48954;59.950;11.014;2023-05-24T07:32:40;99897.73;;;18.03;57.71
62864;BME280;48954;59.950;11.014;2023-05-24T07:35:07;99896.34;;;18.25;56.60
62864;BME280;48954;59.950;11.014;2023-05-24T07:37:34;99901.57;;;18.28;54.99
62864;BME280;48954;59.950;11.014;2023-05-24T07:40:01;99895.30;;;18.36;54.62
62864;BME280;48954;59.950;11.014;2023-05-24T07:42:27;99894.10;;;18.47;54.44
62864;BME280;48954;59.950;11.014;2023-05-24T07:44:54;99897.67;;;18.50;54.36
62864;BME280;48954;59.950;11.014;2023-05-24T07:47:20;99899.20;;;18.59;53.84
62864;BME280;48954;59.950;11.014;2023-05-24T07:49:47;99898.30;;;18.75;53.76
62864;BME280;48954;59.950;11.014;2023-05-24T07:52:13;99897.73;;;18.85;52.78
62864;BME280;48954;59.950;11.014;2023-05-24T07:54:40;99893.05;;;18.82;51.75
62864;BME280;48954;59.950;11.014;2023-05-24T07:57:06;99894.55;;;18.74;51.29
62864;BME280;48954;59.950;11.014;2023-05-24T07:59:32;99892.98;;;18.65;51.01
62864;BME280;48954;59.950;11.014;2023-05-24T08:02:01;99892.83;;;18.72;50.60
62864;BME280;48954;59.950;11.014;2023-05-24T08:04:28;99895.61;;;18.82;50.48
62864;BME280;48954;59.950;11.014;2023-05-24T08:06:55;99894.46;;;18.94;49.64
62864;BME280;48954;59.950;11.014;2023-05-24T08:09:21;99900.98;;;19.03;49.18
62864;BME280;48954;59.950;11.014;2023-05-24T08:11:48;99890.17;;;19.17;49.25
62864;BME280;48954;59.950;11.014;2023-05-24T08:14:15;99896.75;;;19.28;48.86
62864;BME280;48954;59.950;11.014;2023-05-24T08:16:41;99894.98;;;19.29;48.21
62864;BME280;48954;59.950;11.014;2023-05-24T08:19:10;99897.39;;;19.20;47.59
62864;BME280;48954;59.950;11.014;2023-05-24T08:21:36;99903.83;;;19.05;46.77
62864;BME280;48954;59.950;11.014;2023-05-24T08:24:03;99905.17;;;18.88;47.25
62864;BME280;48954;59.950;11.014;2023-05-24T08:26:29;99906.66;;;18.83;47.03
62864;BME280;48954;59.950;11.014;2023-05-24T08:28:56;99908.35;;;18.81;47.18
62864;BME280;48954;59.950;11.014;2023-05-24T08:31:24;99905.69;;;18.77;46.83
62864;BME280;48954;59.950;11.014;2023-05-24T08:33:51;99912.30;;;18.68;46.85
62864;BME280;48954;59.950;11.014;2023-05-24T08:36:17;99913.51;;;18.74;47.04
62864;BME280;48954;59.950;11.014;2023-05-24T08:38:44;99912.98;;;18.89;46.94
62864;BME280;48954;59.950;11.014;2023-05-24T08:41:10;99915.29;;;18.98;46.57
62864;BME280;48954;59.950;11.014;2023-05-24T08:43:37;99911.86;;;18.97;46.49
62864;BME280;48954;59.950;11.014;2023-05-24T08:46:04;99902.44;;;18.93;46.59
62864;BME280;48954;59.950;11.014;2023-05-24T08:48:35;99905.34;;;18.89;46.13
62864;BME280;48954;59.950;11.014;2023-05-24T08:51:08;99900.81;;;18.86;45.91
62864;BME280;48954;59.950;11.014;2023-05-24T08:53:36;99895.33;;;18.95;45.37
62864;BME280;48954;59.950;11.014;2023-05-24T08:56:04;99893.52;;;18.93;45.21
62864;BME280;48954;59.950;11.014;2023-05-24T08:58:32;99890.65;;;18.93;45.29
62864;BME280;48954;59.950;11.014;2023-05-24T09:00:59;99886.14;;;18.98;45.10
62864;BME280;48954;59.950;11.014;2023-05-24T09:03:25;99884.06;;;19.14;46.23
62864;BME280;48954;59.950;11.014;2023-05-24T09:05:52;99891.64;;;19.30;45.93
62864;BME280;48954;59.950;11.014;2023-05-24T09:08:19;99888.10;;;19.32;45.46
62864;BME280;48954;59.950;11.014;2023-05-24T09:10:46;99885.44;;;19.27;45.68
62864;BME280;48954;59.950;11.014;2023-05-24T09:13:14;99884.48;;;19.26;46.07
62864;BME280;48954;59.950;11.014;2023-05-24T09:15:42;99885.83;;;19.22;45.72
62864;BME280;48954;59.950;11.014;2023-05-24T09:18:09;99879.72;;;19.20;46.15
62864;BME280;48954;59.950;11.014;2023-05-24T09:20:35;99878.20;;;19.26;46.66
62864;BME280;48954;59.950;11.014;2023-05-24T09:23:03;99876.64;;;19.38;46.20
62864;BME280;48954;59.950;11.014;2023-05-24T09:25:30;99871.84;;;19.55;46.59
62864;BME280;48954;59.950;11.014;2023-05-24T09:27:56;99867.30;;;19.74;46.18
62864;BME280;48954;59.950;11.014;2023-05-24T09:30:23;99862.00;;;19.95;46.42
62864;BME280;48954;59.950;11.014;2023-05-24T09:32:54;99863.33;;;20.18;46.08
62864;BME280;48954;59.950;11.014;2023-05-24T09:35:21;99860.41;;;20.32;45.58
62864;BME280;48954;59.950;11.014;2023-05-24T09:37:47;99854.23;;;20.40;45.16
62864;BME280;48954;59.950;11.014;2023-05-24T09:40:18;99849.66;;;20.43;45.48
62864;BME280;48954;59.950;11.014;2023-05-24T09:42:44;99857.41;;;20.47;44.72
62864;BME280;48954;59.950;11.014;2023-05-24T09:45:11;99852.86;;;20.51;44.69
62864;BME280;48954;59.950;11.014;2023-05-24T09:47:40;99858.15;;;20.46;44.35
62864;BME280;48954;59.950;11.014;2023-05-24T09:50:15;99854.90;;;20.44;44.79
62864;BME280;48954;59.950;11.014;2023-05-24T09:52:42;99847.13;;;20.47;44.47
62864;BME280;48954;59.950;11.014;2023-05-24T09:55:19;99845.83;;;20.52;44.47
62864;BME280;48954;59.950;11.014;2023-05-24T09:58:06;99842.52;;;20.60;44.23
62864;BME280;48954;59.950;11.014;2023-05-24T10:00:35;99836.41;;;20.62;44.18
62864;BME280;48954;59.950;11.014;2023-05-24T10:03:04;99836.05;;;20.63;44.03
62864;BME280;48954;59.950;11.014;2023-05-24T10:05:31;99830.73;;;20.62;44.03
62864;BME280;48954;59.950;11.014;2023-05-24T10:07:58;99827.01;;;20.65;43.70
62864;BME280;48954;59.950;11.014;2023-05-24T10:10:32;99822.67;;;20.53;43.37
62864;BME280;48954;59.950;11.014;2023-05-24T10:12:59;99814.59;;;20.44;43.45
62864;BME280;48954;59.950;11.014;2023-05-24T10:15:26;99813.26;;;20.32;43.43
62864;BME280;48954;59.950;11.014;2023-05-24T10:17:54;99811.77;;;20.24;43.35
62864;BME280;48954;59.950;11.014;2023-05-24T10:20:22;99814.13;;;20.17;43.28
62864;BME280;48954;59.950;11.014;2023-05-24T10:22:58;99811.38;;;20.13;43.63
62864;BME280;48954;59.950;11.014;2023-05-24T10:25:26;99817.54;;;20.08;43.26
62864;BME280;48954;59.950;11.014;2023-05-24T10:28:00;99818.55;;;19.98;43.33
62864;BME280;48954;59.950;11.014;2023-05-24T10:30:33;99822.06;;;19.94;43.56
62864;BME280;48954;59.950;11.014;2023-05-24T10:33:02;99819.01;;;19.89;43.41
62864;BME280;48954;59.950;11.014;2023-05-24T10:35:31;99820.26;;;19.86;43.73
62864;BME280;48954;59.950;11.014;2023-05-24T10:37:58;99818.40;;;19.87;43.68
62864;BME280;48954;59.950;11.014;2023-05-24T10:40:30;99817.91;;;19.83;43.73
62864;BME280;48954;59.950;11.014;2023-05-24T10:42:57;99814.89;;;19.77;43.81
62864;BME280;48954;59.950;11.014;2023-05-24T10:47:51;99815.89;;;19.68;43.91
62864;BME280;48954;59.950;11.014;2023-05-24T10:50:19;99814.77;;;19.55;43.62
62864;BME280;48954;59.950;11.014;2023-05-24T10:52:47;99820.03;;;19.47;44.08
62864;BME280;48954;59.950;11.014;2023-05-24T10:55:14;99817.27;;;19.46;44.57
62864;BME280;48954;59.950;11.014;2023-05-24T10:57:41;99808.77;;;19.48;44.48
62864;BME280;48954;59.950;11.014;2023-05-24T11:02:50;99806.54;;;19.43;44.63
62864;BME280;48954;59.950;11.014;2023-05-24T11:05:17;99813.48;;;19.47;45.03
62864;BME280;48954;59.950;11.014;2023-05-24T11:07:43;99817.79;;;19.48;44.89
62864;BME280;48954;59.950;11.014;2023-05-24T11:10:14;99817.88;;;19.48;44.99
62864;BME280;48954;59.950;11.014;2023-05-24T11:12:41;99814.16;;;19.53;45.03
62864;BME280;48954;59.950;11.014;2023-05-24T11:15:08;99805.91;;;19.68;45.21
62864;BME280;48954;59.950;11.014;2023-05-24T11:20:34;99814.08;;;19.94;45.13
62864;BME280;48954;59.950;11.014;2023-05-24T11:23:04;99813.65;;;20.01;45.17
62864;BME280;48954;59.950;11.014;2023-05-24T11:25:35;99816.94;;;20.05;44.99
62864;BME280;48954;59.950;11.014;2023-05-24T11:28:05;99815.91;;;20.05;45.13
62864;BME280;48954;59.950;11.014;2023-05-24T11:30:32;99809.95;;;20.09;45.14
62864;BME280;48954;59.950;11.014;2023-05-24T11:32:59;99801.75;;;20.08;45.08
62864;BME280;48954;59.950;11.014;2023-05-24T11:35:26;99802.17;;;20.07;44.89
62864;BME280;48954;59.950;11.014;2023-05-24T11:37:53;99804.64;;;20.01;45.42
62864;BME280;48954;59.950;11.014;2023-05-24T11:40:19;99792.77;;;20.05;45.23
62864;BME280;48954;59.950;11.014;2023-05-24T11:42:46;99785.27;;;20.05;44.86
62864;BME280;48954;59.950;11.014;2023-05-24T11:45:13;99778.52;;;20.08;45.22
62864;BME280;48954;59.950;11.014;2023-05-24T11:47:39;99776.11;;;20.14;45.15
62864;BME280;48954;59.950;11.014;2023-05-24T11:50:06;99774.73;;;20.15;44.74
62864;BME280;48954;59.950;11.014;2023-05-24T11:52:37;99775.66;;;20.13;44.51
62864;BME280;48954;59.950;11.014;2023-05-24T11:55:05;99778.71;;;20.12;44.29
62864;BME280;48954;59.950;11.014;2023-05-24T11:57:41;99766.61;;;20.10;44.13
62864;BME280;48954;59.950;11.014;2023-05-24T12:00:11;99773.77;;;20.06;44.02
62864;BME280;48954;59.950;11.014;2023-05-24T12:02:40;99768.92;;;20.05;43.90
62864;BME280;48954;59.950;11.014;2023-05-24T12:05:07;99767.90;;;20.04;43.84
62864;BME280;48954;59.950;11.014;2023-05-24T12:07:34;99765.98;;;20.10;43.87
62864;BME280;48954;59.950;11.014;2023-05-24T12:10:01;99766.39;;;20.19;43.35
62864;BME280;48954;59.950;11.014;2023-05-24T12:12:27;99764.35;;;20.22;43.59
62864;BME280;48954;59.950;11.014;2023-05-24T12:14:54;99758.92;;;20.25;43.59
62864;BME280;48954;59.950;11.014;2023-05-24T12:17:21;99760.21;;;20.25;43.40
62864;BME280;48954;59.950;11.014;2023-05-24T12:19:49;99757.16;;;20.25;43.53
62864;BME280;48954;59.950;11.014;2023-05-24T12:22:15;99753.87;;;20.23;43.45
62864;BME280;48954;59.950;11.014;2023-05-24T12:24:42;99748.52;;;20.18;43.38
62864;BME280;48954;59.950;11.014;2023-05-24T12:27:10;99746.70;;;20.18;43.78
62864;BME280;48954;59.950;11.014;2023-05-24T12:29:38;99740.21;;;20.19;43.80
62864;BME280;48954;59.950;11.014;2023-05-24T12:32:05;99739.50;;;20.19;43.31
62864;BME280;48954;59.950;11.014;2023-05-24T12:34:32;99742.83;;;20.20;43.30
62864;BME280;48954;59.950;11.014;2023-05-24T12:36:59;99746.79;;;20.22;43.46
62864;BME280;48954;59.950;11.014;2023-05-24T12:39:27;99743.78;;;20.25;43.65
62864;BME280;48954;59.950;11.014;2023-05-24T12:41:54;99739.86;;;20.25;43.45
62864;BME280;48954;59.950;11.014;2023-05-24T12:44:25;99743.54;;;20.25;43.59
62864;BME280;48954;59.950;11.014;2023-05-24T12:46:53;99738.01;;;20.22;43.34
62864;BME280;48954;59.950;11.014;2023-05-24T12:49:21;99741.99;;;20.17;43.43
62864;BME280;48954;59.950;11.014;2023-05-24T12:51:52;99735.74;;;20.14;43.37
62864;BME280;48954;59.950;11.014;2023-05-24T12:54:22;99734.45;;;20.20;43.51
62864;BME280;48954;59.950;11.014;2023-05-24T12:56:49;99739.05;;;20.30;43.52
62864;BME280;48954;59.950;11.014;2023-05-24T12:59:16;99739.21;;;20.38;43.07
62864;BME280;48954;59.950;11.014;2023-05-24T13:01:42;99742.61;;;20.34;43.08
62864;BME280;48954;59.950;11.014;2023-05-24T13:04:09;99745.06;;;20.29;43.30
62864;BME280;48954;59.950;11.014;2023-05-24T13:06:35;99737.92;;;20.27;43.51
62864;BME280;48954;59.950;11.014;2023-05-24T13:09:08;99735.30;;;20.22;43.47
62864;BME280;48954;59.950;11.014;2023-05-24T13:11:34;99736.80;;;20.18;43.35
62864;BME280;48954;59.950;11.014;2023-05-24T13:14:04;99730.94;;;20.11;43.25